Home > Products > Valid Products > TAF

000
FTUS41 KCLE 271700 AAA
TAFCLE
TAF AMD
KCLE 271702Z 2717/2818 33012G20KT P6SM OVC018
     FM272000 34012G20KT P6SM OVC020
     FM272200 36010KT P6SM OVC035
     FM280900 30005KT P6SM BKN020
     FM281400 34008KT P6SM BKN040=



000
FTUS41 KCLE 271600 AAA
TAFFDY
TAF AMD
KFDY 271625Z 2716/2812 34012KT P6SM OVC045
     FM271800 34012KT P6SM OVC030
     FM272200 34012KT P6SM OVC035
     FM280000 02008KT P6SM BKN050
     FM280600 36005KT P6SM SCT050=



000
FTUS41 KCLE 271600 AAB
TAFCAK
TAF AMD
KCAK 271601Z 2716/2812 33012KT 6SM -SHRA BKN015 OVC050
     FM271700 33012KT P6SM BKN025 OVC050
     FM272130 35008KT P6SM SCT025 BKN050
     FM280600 35004KT P6SM SCT050=



000
FTUS41 KCLE 271600 AAB
TAFCAK
TAF AMD
KCAK 271601Z 2716/2812 33012KT 6SM -SHRA BKN015 OVC050
     FM271700 33012KT P6SM BKN025 OVC050
     FM272130 35008KT P6SM SCT025 BKN050
     FM280600 35004KT P6SM SCT050=



000
FTUS41 KCLE 271500 AAB
TAFERI
TAF AMD
KERI 271556Z 2716/2812 30006KT 4SM -RA BKN005 OVC015
     FM271700 32010KT P6SM BKN020 OVC035
     FM272200 32008KT P6SM BKN035 OVC050
     FM280300 32004KT P6SM BKN050=



000
FTUS41 KCLE 271400 AAA
TAFCAK
TAF AMD
KCAK 271416Z 2714/2812 33012KT P6SM -SHRA BKN025 OVC050
      TEMPO 2714/2716 5SM -SHRA OVC025
     FM271600 33012KT P6SM BKN025 OVC050
     FM272130 35008KT P6SM SCT025 BKN050
     FM280600 35004KT P6SM SCT050=



000
FTUS41 KCLE 271400 AAA
TAFERI
TAF AMD
KERI 271414Z 2714/2812 30006KT P6SM -RA SCT003 OVC015
      TEMPO 2714/2715 4SM -RA BR OVC003
     FM271600 32012KT P6SM BKN025 OVC035
     FM272200 32008KT P6SM BKN035 OVC050
     FM280300 32004KT P6SM BKN050=



000
FTUS41 KCLE 271400 AAA
TAFERI
TAF AMD
KERI 271414Z 2714/2812 30006KT P6SM -RA SCT003 OVC015
      TEMPO 2714/2715 4SM -RA BR OVC003
     FM271600 32012KT P6SM BKN025 OVC035
     FM272200 32008KT P6SM BKN035 OVC050
     FM280300 32004KT P6SM BKN050=



000
FTUS41 KCLE 271400 AAB
TAFCLE
TAF AMD
KCLE 271409Z 2714/2818 34015KT P6SM OVC012
     FM271600 34012KT P6SM OVC020
     FM272100 36010KT P6SM OVC035
     FM280000 36008KT P6SM SCT035 BKN050
     FM280600 30004KT P6SM BKN050
     FM281400 36008KT P6SM BKN040=



000
FTUS41 KCLE 271200 AAA
TAFYNG
TAF AMD
KYNG 271252Z 2713/2812 32010KT P6SM BKN015 OVC050
     FM271400 31010KT 6SM -SHRA SCT008 OVC015
      TEMPO 2714/2717 4SM -RA BR OVC008
     FM271800 33010G20KT P6SM OVC025
     FM272200 33008KT P6SM BKN035 OVC050
     FM280300 33004KT P6SM BKN050=



000
FTUS41 KCLE 271200 AAA
TAFCLE
TAF AMD
KCLE 271245Z 2713/2818 34010KT 6SM -SHRA SCT008 OVC015
      TEMPO 2713/2715 5SM -SHRA OVC015
     FM271600 34010KT P6SM OVC020
     FM272100 36010KT P6SM OVC035
     FM280000 36008KT P6SM SCT035 BKN050
     FM280600 30004KT P6SM BKN050
     FM281400 36008KT P6SM BKN040=



000
FTUS41 KCLE 271200 AAA
TAFCLE
TAF AMD
KCLE 271245Z 2713/2818 34010KT 6SM -SHRA SCT008 OVC015
      TEMPO 2713/2715 5SM -SHRA OVC015
     FM271600 34010KT P6SM OVC020
     FM272100 36010KT P6SM OVC035
     FM280000 36008KT P6SM SCT035 BKN050
     FM280600 30004KT P6SM BKN050
     FM281400 36008KT P6SM BKN040=



000
FTUS41 KCLE 271100
TAFMFD
TAF
KMFD 271126Z 2712/2812 30008KT P6SM SCT050 OVC080
     FM271500 33012KT P6SM OVC020
     FM272200 35008KT P6SM SCT030 BKN050
     FM280600 35004KT P6SM SCT050=



000
FTUS41 KCLE 271100
TAFYNG
TAF
KYNG 271126Z 2712/2812 29004KT P6SM SCT015 OVC035
      TEMPO 2712/2714 5SM -RA BR OVC015
     FM271400 31008KT P6SM SCT008 OVC015
      TEMPO 2714/2717 4SM -RA BR OVC008
     FM271800 33010G20KT P6SM OVC025
     FM272200 33008KT P6SM BKN035 OVC050
     FM280300 33004KT P6SM BKN050=



000
FTUS41 KCLE 271100
TAFTOL
TAF
KTOL 271126Z 2712/2812 32007KT P6SM SCT025 OVC050
     FM271430 34010KT P6SM OVC025
     FM271800 36010G20KT P6SM SCT025 OVC050
     FM272300 02007KT P6SM BKN050
     FM280400 36004KT P6SM SCT050=



000
FTUS41 KCLE 271100
TAFERI
TAF
KERI 271126Z 2712/2812 29006KT P6SM -RA SCT009 OVC015
      TEMPO 2712/2716 5SM -RA BR OVC009
     FM271800 32012KT P6SM BKN025 OVC035
     FM272200 32008KT P6SM BKN035 OVC050
     FM280300 32004KT P6SM BKN050=



000
FTUS41 KCLE 271100
TAFFDY
TAF
KFDY 271126Z 2712/2812 32008KT P6SM OVC080
     FM271530 34010KT P6SM BKN025 OVC050
     FM271830 36012G20KT P6SM SCT025 OVC050
     FM280000 02007KT P6SM BKN050
     FM280500 36004KT P6SM SCT050=



000
FTUS41 KCLE 271100
TAFCLE
TAF
KCLE 271126Z 2712/2818 31006KT P6SM SCT025 OVC050
      TEMPO 2712/2714 5SM -SHRA OVC025
     FM271400 34010KT P6SM SCT015 OVC025
      TEMPO 2714/2716 5SM -SHRA OVC015
     FM272100 36010KT P6SM OVC035
     FM280000 36008KT P6SM SCT035 BKN050
     FM280600 30004KT P6SM BKN050
     FM281400 36008KT P6SM BKN040=



000
FTUS41 KCLE 271100
TAFCAK
TAF
KCAK 271126Z 2712/2812 30008KT P6SM SCT050 OVC080
     FM271500 33012KT P6SM BKN025 OVC050
      TEMPO 2715/2717 5SM -SHRA OVC025
     FM272130 35008KT P6SM SCT025 BKN050
     FM280600 35004KT P6SM SCT050=



000
FTUS41 KCLE 270800 AAA
TAFCLE
TAF AMD
KCLE 270858Z 2709/2812 30006KT P6SM OVC050
     FM271230 32010KT P6SM VCSH BKN025 OVC035
     FM271700 35010G20KT P6SM BKN035 OVC050
     FM272200 35008KT P6SM BKN050
     FM280600 30004KT P6SM SCT050=



000
FTUS41 KCLE 270500 RRA
TAFFDY
TAF
KFDY 270541Z 2706/2806 06005KT P6SM OVC060
     FM270900 33005KT P6SM OVC060
     FM271400 33010KT P6SM SCT025 OVC040
     FM271800 36010G20KT P6SM BKN050
     FM272300 02008KT P6SM BKN050=



000
FTUS41 KCLE 270500 RRA
TAFMFD
TAF
KMFD 270541Z 2706/2806 32005KT P6SM SCT050
     FM271000 32005KT P6SM BKN035 OVC050
     FM271400 32010KT P6SM BKN020 OVC035
     FM271800 34010G20KT P6SM BKN035 OVC050
     FM272200 34008KT P6SM BKN050=



000
FTUS41 KCLE 270500 RRA
TAFCLE
TAF
KCLE 270541Z 2706/2812 35008KT P6SM BKN050
     FM270900 32008KT P6SM BKN035 OVC050
     FM271200 32010KT P6SM VCSH BKN025 OVC035
     FM271700 35010G20KT P6SM BKN035 OVC050
     FM272200 35008KT P6SM BKN050
     FM280600 30004KT P6SM SCT050=



000
FTUS41 KCLE 270500 RRA
TAFTOL
TAF
KTOL 270541Z 2706/2806 06004KT P6SM BKN060
     FM270800 31004KT P6SM OVC060
     FM271200 33010KT P6SM SCT025 OVC040
     FM271800 36010G20KT P6SM BKN050
     FM272300 02007KT P6SM SCT050=



000
FTUS41 KCLE 270500 RRA
TAFYNG
TAF
KYNG 270541Z 2706/2806 31004KT P6SM BKN040
     FM271000 29004KT P6SM BKN035 OVC050
     FM271300 31008KT P6SM -SHRA SCT015 OVC025
     FM271800 33010G20KT P6SM OVC025
     FM272200 33008KT P6SM BKN035 OVC050=



000
FTUS41 KCLE 270500 RRA
TAFCAK
TAF
KCAK 270541Z 2706/2806 32008KT P6SM BKN050
     FM271300 32010KT P6SM VCSH BKN025 OVC035
     FM271800 34010G20KT P6SM BKN035 OVC050
     FM272200 35008KT P6SM BKN050=



000
FTUS41 KCLE 270500 RRA
TAFERI
TAF
KERI 270541Z 2706/2806 31004KT P6SM BKN040
     FM271000 31004KT P6SM BKN030 OVC050
     FM271200 31006KT P6SM -SHRA SCT015 OVC025
      TEMPO 2712/2716 5SM -RA BR OVC015
     FM271800 31010KT P6SM SCT025 OVC035
     FM272200 31006KT P6SM BKN035 OVC050=



000
FTUS41 KCLE 270500 RRA
TAFERI
TAF
KERI 270541Z 2706/2806 31004KT P6SM BKN040
     FM271000 31004KT P6SM BKN030 OVC050
     FM271200 31006KT P6SM -SHRA SCT015 OVC025
      TEMPO 2712/2716 5SM -RA BR OVC015
     FM271800 31010KT P6SM SCT025 OVC035
     FM272200 31006KT P6SM BKN035 OVC050=



000
FTUS41 KCLE 270500 RRA
TAFTOL
TAF
KTOL 270541Z 2706/2806 06004KT P6SM BKN060
     FM270800 31004KT P6SM OVC060
     FM271200 33010KT P6SM SCT025 OVC040
     FM271800 36010G20KT P6SM BKN050
     FM272300 02007KT P6SM SCT050=



000
FTUS41 KCLE 270500 RRA
TAFFDY
TAF
KFDY 270541Z 2706/2806 06005KT P6SM OVC060
     FM270900 33005KT P6SM OVC060
     FM271400 33010KT P6SM SCT025 OVC040
     FM271800 36010G20KT P6SM BKN050
     FM272300 02008KT P6SM BKN050=



000
FTUS41 KCLE 270500 RRA
TAFMFD
TAF
KMFD 270541Z 2706/2806 32005KT P6SM SCT050
     FM271000 32005KT P6SM BKN035 OVC050
     FM271400 32010KT P6SM BKN020 OVC035
     FM271800 34010G20KT P6SM BKN035 OVC050
     FM272200 34008KT P6SM BKN050=



000
FTUS41 KCLE 270500 RRA
TAFYNG
TAF
KYNG 270541Z 2706/2806 31004KT P6SM BKN040
     FM271000 29004KT P6SM BKN035 OVC050
     FM271300 31008KT P6SM -SHRA SCT015 OVC025
     FM271800 33010G20KT P6SM OVC025
     FM272200 33008KT P6SM BKN035 OVC050=



000
FTUS41 KCLE 270500 RRA
TAFCLE
TAF
KCLE 270541Z 2706/2812 35008KT P6SM BKN050
     FM270900 32008KT P6SM BKN035 OVC050
     FM271200 32010KT P6SM VCSH BKN025 OVC035
     FM271700 35010G20KT P6SM BKN035 OVC050
     FM272200 35008KT P6SM BKN050
     FM280600 30004KT P6SM SCT050=



000
FTUS41 KCLE 270500 RRA
TAFCAK
TAF
KCAK 270541Z 2706/2806 32008KT P6SM BKN050
     FM271300 32010KT P6SM VCSH BKN025 OVC035
     FM271800 34010G20KT P6SM BKN035 OVC050
     FM272200 35008KT P6SM BKN050=



000
FTUS41 KCLE 270300 AAA
TAFTOL
TAF AMD
KTOL 270317Z 2703/2724 VRB04KT P6SM OVC080
     FM271600 33010G20KT P6SM OVC025
     FM272000 36010KT P6SM OVC050=



000
FTUS41 KCLE 270300 AAA
TAFCLE
TAF AMD
KCLE 270316Z 2703/2806 35005KT P6SM SKC
     FM270800 31009KT P6SM OVC050
     FM271300 33012KT P6SM VCSH OVC025
     FM271500 33010G20KT P6SM VCSH OVC025
     FM272000 36010KT P6SM OVC050
     FM280000 35008KT P6SM SKC=



000
FTUS41 KCLE 262300
TAFTOL
TAF
KTOL 262321Z 2700/2724 36012KT P6SM SCT070
     FM270400 01005KT P6SM OVC050
     FM271600 33010G20KT P6SM OVC025
     FM272000 36010KT P6SM OVC050=



000
FTUS41 KCLE 262300
TAFCAK
TAF
KCAK 262321Z 2700/2724 35006KT P6SM SKC
     FM271000 32010KT P6SM OVC025
     FM271200 32010KT P6SM -SHRA OVC015
     FM271600 33010G20KT P6SM OVC025
     FM271800 34010KT P6SM OVC025=



000
FTUS41 KCLE 262300
TAFMFD
TAF
KMFD 262321Z 2700/2724 36010G20KT P6SM SKC
     FM270100 36006KT P6SM SKC
     FM270800 30005KT P6SM SCT050
     FM271300 30008KT P6SM OVC050
     FM271400 30010G15KT P6SM VCSH OVC025
     FM272000 34010KT P6SM OVC025=



000
FTUS41 KCLE 262300
TAFTOL
TAF
KTOL 262321Z 2700/2724 36012KT P6SM SCT070
     FM270400 01005KT P6SM OVC050
     FM271600 33010G20KT P6SM OVC025
     FM272000 36010KT P6SM OVC050=



000
FTUS41 KCLE 262300
TAFERI
TAF
KERI 262321Z 2700/2724 25008KT P6SM OVC070
     FM270400 31005KT P6SM SCT070
     FM270800 29006KT P6SM OVC050
     FM271100 31006KT 4SM -SHRA BR OVC007
     FM271500 32008KT P6SM OVC015
     FM272100 29010KT P6SM OVC050=



000
FTUS41 KCLE 262300
TAFERI
TAF
KERI 262321Z 2700/2724 25008KT P6SM OVC070
     FM270400 31005KT P6SM SCT070
     FM270800 29006KT P6SM OVC050
     FM271100 31006KT 4SM -SHRA BR OVC007
     FM271500 32008KT P6SM OVC015
     FM272100 29010KT P6SM OVC050=



000
FTUS41 KCLE 262300
TAFYNG
TAF
KYNG 262321Z 2700/2724 34008KT P6SM BKN050
     FM270400 31004KT P6SM SCT050
     FM270900 29004KT P6SM OVC050
     FM271200 30008KT P6SM -SHRA OVC015
     FM271500 32012KT P6SM OVC025
     FM271700 33010G20KT P6SM OVC025=



000
FTUS41 KCLE 262300
TAFFDY
TAF
KFDY 262321Z 2700/2724 02010G15KT P6SM SCT060
     FM270100 04006KT P6SM SCT060
     FM270500 35005KT P6SM OVC050
     FM271500 33012KT P6SM OVC025
     FM272200 36010G15KT P6SM OVC050=



000
FTUS41 KCLE 262300
TAFCLE
TAF
KCLE 262321Z 2700/2806 36012KT P6SM SKC
     FM270800 31009KT P6SM OVC050
     FM271300 33012KT P6SM VCSH OVC025
     FM271500 33010G20KT P6SM VCSH OVC025
     FM272000 36010KT P6SM OVC050
     FM280000 35008KT P6SM SKC=



000
FTUS41 KCLE 262300
TAFCAK
TAF
KCAK 262321Z 2700/2724 35006KT P6SM SKC
     FM271000 32010KT P6SM OVC025
     FM271200 32010KT P6SM -SHRA OVC015
     FM271600 33010G20KT P6SM OVC025
     FM271800 34010KT P6SM OVC025=



000
FTUS41 KCLE 262300
TAFMFD
TAF
KMFD 262321Z 2700/2724 36010G20KT P6SM SKC
     FM270100 36006KT P6SM SKC
     FM270800 30005KT P6SM SCT050
     FM271300 30008KT P6SM OVC050
     FM271400 30010G15KT P6SM VCSH OVC025
     FM272000 34010KT P6SM OVC025=



000
FTUS41 KCLE 262300
TAFFDY
TAF
KFDY 262321Z 2700/2724 02010G15KT P6SM SCT060
     FM270100 04006KT P6SM SCT060
     FM270500 35005KT P6SM OVC050
     FM271500 33012KT P6SM OVC025
     FM272200 36010G15KT P6SM OVC050=



000
FTUS41 KCLE 262300
TAFYNG
TAF
KYNG 262321Z 2700/2724 34008KT P6SM BKN050
     FM270400 31004KT P6SM SCT050
     FM270900 29004KT P6SM OVC050
     FM271200 30008KT P6SM -SHRA OVC015
     FM271500 32012KT P6SM OVC025
     FM271700 33010G20KT P6SM OVC025=



000
FTUS41 KCLE 262300
TAFCLE
TAF
KCLE 262321Z 2700/2806 36012KT P6SM SKC
     FM270800 31009KT P6SM OVC050
     FM271300 33012KT P6SM VCSH OVC025
     FM271500 33010G20KT P6SM VCSH OVC025
     FM272000 36010KT P6SM OVC050
     FM280000 35008KT P6SM SKC=



000
FTUS41 KCLE 262000 AAA
TAFCLE
TAF AMD
KCLE 262055Z 2621/2724 35010KT P6SM FEW050
     FM270000 36008KT P6SM SCT050
     FM270600 33006KT P6SM OVC050
     FM271000 30008KT P6SM OVC025
     FM271500 33015KT P6SM VCSH OVC018=



000
FTUS41 KCLE 262000 AAA
TAFCLE
TAF AMD
KCLE 262055Z 2621/2724 35010KT P6SM FEW050
     FM270000 36008KT P6SM SCT050
     FM270600 33006KT P6SM OVC050
     FM271000 30008KT P6SM OVC025
     FM271500 33015KT P6SM VCSH OVC018=



000
FTUS41 KCLE 261900 AAA
TAFFDY
TAF AMD
KFDY 261927Z 2619/2718 02012G20KT P6SM SCT050
     FM270100 02006KT P6SM BKN050
     FM270800 31005KT P6SM OVC050
     FM271400 33012KT P6SM OVC025=



000
FTUS41 KCLE 261900 AAA
TAFFDY
TAF AMD
KFDY 261927Z 2619/2718 02012G20KT P6SM SCT050
     FM270100 02006KT P6SM BKN050
     FM270800 31005KT P6SM OVC050
     FM271400 33012KT P6SM OVC025=



000
FTUS41 KCLE 261900 AAA
TAFTOL
TAF AMD
KTOL 261926Z 2619/2718 02012G20KT P6SM BKN050
     FM270000 02006KT P6SM BKN050
     FM270700 32005KT P6SM OVC050
     FM271200 33012KT P6SM OVC025=



000
FTUS41 KCLE 261900 AAA
TAFTOL
TAF AMD
KTOL 261926Z 2619/2718 02012G20KT P6SM BKN050
     FM270000 02006KT P6SM BKN050
     FM270700 32005KT P6SM OVC050
     FM271200 33012KT P6SM OVC025=



000
FTUS41 KCLE 261900 AAA
TAFYNG
TAF AMD
KYNG 261925Z 2619/2718 36012KT P6SM SCT050
     FM270100 33005KT P6SM BKN050
     FM270900 30006KT P6SM VCSH SCT008 OVC018=



000
FTUS41 KCLE 261900 AAA
TAFYNG
TAF AMD
KYNG 261925Z 2619/2718 36012KT P6SM SCT050
     FM270100 33005KT P6SM BKN050
     FM270900 30006KT P6SM VCSH SCT008 OVC018=



000
FTUS41 KCLE 261900 AAA
TAFCAK
TAF AMD
KCAK 261924Z 2619/2718 34015KT P6SM FEW050
     FM270000 35006KT P6SM SCT050
     FM270700 32006KT P6SM BKN050
     FM271100 32010KT P6SM OVC020=



000
FTUS41 KCLE 261900 AAA
TAFCAK
TAF AMD
KCAK 261924Z 2619/2718 34015KT P6SM FEW050
     FM270000 35006KT P6SM SCT050
     FM270700 32006KT P6SM BKN050
     FM271100 32010KT P6SM OVC020=



000
FTUS41 KCLE 261700 CCA
TAFERI
TAF COR
KERI 261741Z 2618/2718 02010KT P6SM SCT050
     FM262000 34008KT P6SM BKN050
     FM270400 30004KT P6SM SCT025 OVC050
     FM270600 30004KT P6SM VCSH SCT008 OVC018=



000
FTUS41 KCLE 261700 CCA
TAFERI
TAF COR
KERI 261741Z 2618/2718 02010KT P6SM SCT050
     FM262000 34008KT P6SM BKN050
     FM270400 30004KT P6SM SCT025 OVC050
     FM270600 30004KT P6SM VCSH SCT008 OVC018=



000
FTUS41 KCLE 261700
TAFYNG
TAF
KYNG 261740Z 2618/2718 03012KT P6SM BKN050
     FM270200 33005KT P6SM BKN050
     FM270900 30006KT P6SM VCSH SCT008 OVC018=



000
FTUS41 KCLE 261700
TAFTOL
TAF
KTOL 261740Z 2618/2718 02012G20KT P6SM SCT050
     FM270000 02006KT P6SM SCT050 BKN100
     FM270500 32005KT P6SM VCSH OVC050
     FM271200 33012KT P6SM OVC025=



000
FTUS41 KCLE 261700
TAFMFD
TAF
KMFD 261740Z 2618/2718 02012G20KT P6SM FEW050
     FM270100 35006KT P6SM SCT045
     FM270900 32006KT P6SM BKN045
     FM271400 33012G20KT P6SM OVC025=



000
FTUS41 KCLE 261700
TAFYNG
TAF
KYNG 261740Z 2618/2718 03012KT P6SM BKN050
     FM270200 33005KT P6SM BKN050
     FM270900 30006KT P6SM VCSH SCT008 OVC018=



000
FTUS41 KCLE 261700
TAFCLE
TAF
KCLE 261740Z 2618/2724 35012KT P6SM FEW050
     FM270000 36008KT P6SM SCT050
     FM270600 33006KT P6SM OVC050
     FM271000 30008KT P6SM OVC025
     FM271500 33015KT P6SM VCSH OVC018=



000
FTUS41 KCLE 261700
TAFERI
TAF
KERI 261740Z 2618/2718 02010KT P6SM SCT050
     FM262000 34008KT P6SM BKN050
     FM270400 30004KT P6SM SCT025 OVC050
     FM270600 30004KT P6SM VCSH OVC018=



000
FTUS41 KCLE 261700
TAFFDY
TAF
KFDY 261740Z 2618/2718 02012G20KT P6SM SCT050
     FM270100 02006KT P6SM SCT050 BKN100
     FM270600 31005KT P6SM VCSH OVC050
     FM271400 33012KT P6SM OVC025=



000
FTUS41 KCLE 261700
TAFERI
TAF
KERI 261740Z 2618/2718 02010KT P6SM SCT050
     FM262000 34008KT P6SM BKN050
     FM270400 30004KT P6SM SCT025 OVC050
     FM270600 30004KT P6SM VCSH OVC018=



000
FTUS41 KCLE 261700
TAFFDY
TAF
KFDY 261740Z 2618/2718 02012G20KT P6SM SCT050
     FM270100 02006KT P6SM SCT050 BKN100
     FM270600 31005KT P6SM VCSH OVC050
     FM271400 33012KT P6SM OVC025=



000
FTUS41 KCLE 261700
TAFCAK
TAF
KCAK 261740Z 2618/2718 04010G18KT P6SM SCT050
     FM270000 35006KT P6SM SCT050
     FM270700 32006KT P6SM BKN050
     FM271100 32010KT P6SM OVC020=



000
FTUS41 KCLE 261700
TAFTOL
TAF
KTOL 261740Z 2618/2718 02012G20KT P6SM SCT050
     FM270000 02006KT P6SM SCT050 BKN100
     FM270500 32005KT P6SM VCSH OVC050
     FM271200 33012KT P6SM OVC025=



000
FTUS41 KCLE 261700
TAFCAK
TAF
KCAK 261740Z 2618/2718 04010G18KT P6SM SCT050
     FM270000 35006KT P6SM SCT050
     FM270700 32006KT P6SM BKN050
     FM271100 32010KT P6SM OVC020=



000
FTUS41 KCLE 261700
TAFCLE
TAF
KCLE 261740Z 2618/2724 35012KT P6SM FEW050
     FM270000 36008KT P6SM SCT050
     FM270600 33006KT P6SM OVC050
     FM271000 30008KT P6SM OVC025
     FM271500 33015KT P6SM VCSH OVC018=



000
FTUS41 KCLE 261700
TAFMFD
TAF
KMFD 261740Z 2618/2718 02012G20KT P6SM FEW050
     FM270100 35006KT P6SM SCT045
     FM270900 32006KT P6SM BKN045
     FM271400 33012G20KT P6SM OVC025=



000
FTUS41 KCLE 261700 AAA
TAFMFD
TAF AMD
KMFD 261726Z 2617/2712 02012G20KT P6SM FEW050
     FM270100 35006KT P6SM SCT045
     FM270900 32006KT P6SM BKN045=



000
FTUS41 KCLE 261700 AAA
TAFMFD
TAF AMD
KMFD 261726Z 2617/2712 02012G20KT P6SM FEW050
     FM270100 35006KT P6SM SCT045
     FM270900 32006KT P6SM BKN045=



000
FTUS41 KCLE 261700 AAA
TAFFDY
TAF AMD
KFDY 261719Z 2617/2712 02012G20KT P6SM SCT050
     FM270100 02006KT P6SM SCT050 BKN100
     FM270600 31005KT P6SM VCSH OVC050=



000
FTUS41 KCLE 261700 AAA
TAFFDY
TAF AMD
KFDY 261719Z 2617/2712 02012G20KT P6SM SCT050
     FM270100 02006KT P6SM SCT050 BKN100
     FM270600 31005KT P6SM VCSH OVC050=



000
FTUS41 KCLE 261700 AAA
TAFTOL
TAF AMD
KTOL 261718Z 2617/2712 02012G20KT P6SM SCT050
     FM270000 02006KT P6SM SCT050 BKN100
     FM270500 32005KT P6SM VCSH OVC050=



000
FTUS41 KCLE 261700 AAA
TAFTOL
TAF AMD
KTOL 261718Z 2617/2712 02012G20KT P6SM SCT050
     FM270000 02006KT P6SM SCT050 BKN100
     FM270500 32005KT P6SM VCSH OVC050=



000
FTUS41 KCLE 261400 AAA
TAFCLE
TAF AMD
KCLE 261457Z 2615/2718 01012KT P6SM SCT050
     FM270000 35012G18KT P6SM SCT050 BKN120
     FM270600 34009KT P6SM SCT035 OVC050
     FM270900 30008KT P6SM OVC025=



000
FTUS41 KCLE 261100
TAFFDY
TAF
KFDY 261120Z 2612/2712 02009KT P6SM SKC
     FM261600 02012G16KT P6SM SCT045
     FM262300 01014G20KT P6SM BKN045 OVC120
     FM270100 02006KT P6SM OVC050
     FM270900 31005KT P6SM OVC050=



000
FTUS41 KCLE 261100
TAFTOL
TAF
KTOL 261120Z 2612/2712 35005KT P6SM SKC
     FM261500 02012KT P6SM SCT045
     FM262000 01014G20KT P6SM BKN045 OVC120
     FM270100 02006KT P6SM OVC050
     FM270900 31005KT P6SM OVC050=



000
FTUS41 KCLE 261100
TAFERI
TAF
KERI 261120Z 2612/2712 06008KT P6SM SKC
     FM261500 01009KT P6SM SCT250
     FM262000 30008KT P6SM SCT050 BKN120
     FM270000 32008KT P6SM BKN050 OVC120
     FM270400 30004KT P6SM SCT025 OVC050
     FM270600 30004KT P6SM OVC025=



000
FTUS41 KCLE 261100
TAFCLE
TAF
KCLE 261120Z 2612/2718 01006KT P6SM SKC
     FM261600 01012G18KT P6SM SCT050
     FM270000 35012G18KT P6SM SCT050 BKN120
     FM270600 34009KT P6SM SCT035 OVC050
     FM270900 30008KT P6SM OVC025=



000
FTUS41 KCLE 261100
TAFYNG
TAF
KYNG 261120Z 2612/2712 03008KT P6SM SCT250
     FM261600 35010KT P6SM SCT045
     FM262200 35009KT P6SM SCT050 BKN120
     FM270200 33004KT P6SM BKN050
     FM271100 30006KT P6SM OVC025=



000
FTUS41 KCLE 261100
TAFMFD
TAF
KMFD 261120Z 2612/2712 35007KT P6SM SKC
     FM261600 01011KT P6SM SCT050
     FM262000 36011KT P6SM SCT045 BKN100
     FM270100 34006KT P6SM SCT045 OVC100
     FM270900 30005KT P6SM BKN045=



000
FTUS41 KCLE 261100
TAFCAK
TAF
KCAK 261120Z 2612/2712 02010KT P6SM SCT250
     FM261500 01011KT P6SM SCT045
     FM270000 35009KT P6SM SCT050 BKN120
     FM270200 33004KT P6SM BKN050
     FM271100 30006KT P6SM OVC025=



000
FTUS41 KCLE 260800 AAA
TAFCLE
TAF AMD
KCLE 260853Z 2609/2712 02008KT P6SM SKC
     FM261200 01007KT P6SM SKC
     FM261600 01012G18KT P6SM SCT050
     FM270000 35012G18KT P6SM SCT050 BKN120
     FM270600 34009KT P6SM SCT035 OVC050
     FM271000 30007KT P6SM OVC035=



000
FTUS41 KCLE 260500
TAFCAK
TAF
KCAK 260520Z 2606/2706 04008KT P6SM OVC120
     FM261200 02008KT P6SM SCT250
     FM261500 01011KT P6SM SCT045
     FM270000 35009KT P6SM SCT050 BKN120
     FM270200 33004KT P6SM BKN050=



000
FTUS41 KCLE 260500
TAFERI
TAF
KERI 260520Z 2606/2706 06008KT P6SM SKC
     FM261500 01009KT P6SM SCT250
     FM262000 30008KT P6SM SCT050 BKN120
     FM270000 32008KT P6SM BKN050 OVC120=



000
FTUS41 KCLE 260500
TAFYNG
TAF
KYNG 260520Z 2606/2706 04008KT P6SM OVC150
     FM261200 03006KT P6SM SCT250
     FM261600 35010KT P6SM SCT045
     FM262200 35009KT P6SM SCT050 BKN120
     FM270200 33004KT P6SM BKN050=



000
FTUS41 KCLE 260500
TAFCLE
TAF
KCLE 260520Z 2606/2712 02010KT P6SM SKC
     FM261200 01007KT P6SM SKC
     FM261600 01012G18KT P6SM SCT050
     FM270000 35012G18KT P6SM SCT050 BKN120
     FM270600 34009KT P6SM SCT035 OVC050
     FM271000 30007KT P6SM OVC035=



000
FTUS41 KCLE 260500
TAFCAK
TAF
KCAK 260520Z 2606/2706 04008KT P6SM OVC120
     FM261200 02008KT P6SM SCT250
     FM261500 01011KT P6SM SCT045
     FM270000 35009KT P6SM SCT050 BKN120
     FM270200 33004KT P6SM BKN050=



000
FTUS41 KCLE 260500
TAFMFD
TAF
KMFD 260520Z 2606/2706 02007KT P6SM OVC100
     FM261100 06007KT P6SM SKC
     FM261600 01011KT P6SM SCT050
     FM262000 36011KT P6SM SCT045 BKN100
     FM270100 34006KT P6SM SCT045 OVC100=



000
FTUS41 KCLE 260500
TAFERI
TAF
KERI 260520Z 2606/2706 06008KT P6SM SKC
     FM261500 01009KT P6SM SCT250
     FM262000 30008KT P6SM SCT050 BKN120
     FM270000 32008KT P6SM BKN050 OVC120=



000
FTUS41 KCLE 260500
TAFYNG
TAF
KYNG 260520Z 2606/2706 04008KT P6SM OVC150
     FM261200 03006KT P6SM SCT250
     FM261600 35010KT P6SM SCT045
     FM262200 35009KT P6SM SCT050 BKN120
     FM270200 33004KT P6SM BKN050=



000
FTUS41 KCLE 260500
TAFFDY
TAF
KFDY 260520Z 2606/2706 04011KT P6SM OVC100
     FM261000 03007KT P6SM SKC
     FM261600 02012G16KT P6SM SCT045
     FM262000 01014G20KT P6SM BKN045 OVC120
     FM270100 02006KT P6SM OVC050=



000
FTUS41 KCLE 260500
TAFTOL
TAF
KTOL 260520Z 2606/2706 06007KT P6SM SKC
     FM261500 02012KT P6SM SCT045
     FM261800 01014G20KT P6SM BKN045 OVC120
     FM270100 02006KT P6SM OVC050=



000
FTUS41 KCLE 260500
TAFCLE
TAF
KCLE 260520Z 2606/2712 02010KT P6SM SKC
     FM261200 01007KT P6SM SKC
     FM261600 01012G18KT P6SM SCT050
     FM270000 35012G18KT P6SM SCT050 BKN120
     FM270600 34009KT P6SM SCT035 OVC050
     FM271000 30007KT P6SM OVC035=



000
FTUS41 KCLE 260500
TAFMFD
TAF
KMFD 260520Z 2606/2706 02007KT P6SM OVC100
     FM261100 06007KT P6SM SKC
     FM261600 01011KT P6SM SCT050
     FM262000 36011KT P6SM SCT045 BKN100
     FM270100 34006KT P6SM SCT045 OVC100=



000
FTUS41 KCLE 260500
TAFFDY
TAF
KFDY 260520Z 2606/2706 04011KT P6SM OVC100
     FM261000 03007KT P6SM SKC
     FM261600 02012G16KT P6SM SCT045
     FM262000 01014G20KT P6SM BKN045 OVC120
     FM270100 02006KT P6SM OVC050=



000
FTUS41 KCLE 252300
TAFMFD
TAF
KMFD 252331Z 2600/2624 01008KT P6SM -RA OVC035
     FM260200 06010KT P6SM OVC080
     FM260700 36007KT P6SM OVC250
     FM261700 36010G15KT P6SM SCT250=



000
FTUS41 KCLE 252300
TAFYNG
TAF
KYNG 252331Z 2600/2624 06004KT P6SM OVC200
     FM261700 35010KT P6SM SCT250=



000
FTUS41 KCLE 252300
TAFCAK
TAF
KCAK 252331Z 2600/2624 05006KT P6SM BKN100 OVC150
     FM260700 02007KT P6SM BKN250
     FM261900 36010G15KT P6SM SCT250=



000
FTUS41 KCLE 252300
TAFCLE
TAF
KCLE 252331Z 2600/2706 03011KT P6SM OVC150
     FM260300 02007KT P6SM BKN250
     FM261900 36012KT P6SM SCT250
     FM270100 36007KT P6SM SCT250=



000
FTUS41 KCLE 252300
TAFFDY
TAF
KFDY 252331Z 2600/2624 03009KT P6SM -RA OVC070
     FM260200 05009KT P6SM OVC050
     FM260600 02009KT P6SM BKN250
     FM261700 02010G20KT P6SM SKC
     FM262300 01010G20KT P6SM OVC050=



000
FTUS41 KCLE 252300
TAFERI
TAF
KERI 252331Z 2600/2624 04010KT P6SM SCT250
     FM262100 31008KT P6SM OVC040=



000
FTUS41 KCLE 252300
TAFTOL
TAF
KTOL 252331Z 2600/2624 05007KT P6SM BKN100
     FM260400 01006KT P6SM BKN250
     FM261600 02010G15KT P6SM SCT250
     FM261900 01010G15KT P6SM OVC050=



000
FTUS41 KCLE 252300
TAFCLE
TAF
KCLE 252331Z 2600/2706 03011KT P6SM OVC150
     FM260300 02007KT P6SM BKN250
     FM261900 36012KT P6SM SCT250
     FM270100 36007KT P6SM SCT250=



000
FTUS41 KCLE 252300
TAFYNG
TAF
KYNG 252331Z 2600/2624 06004KT P6SM OVC200
     FM261700 35010KT P6SM SCT250=



000
FTUS41 KCLE 252300
TAFFDY
TAF
KFDY 252331Z 2600/2624 03009KT P6SM -RA OVC070
     FM260200 05009KT P6SM OVC050
     FM260600 02009KT P6SM BKN250
     FM261700 02010G20KT P6SM SKC
     FM262300 01010G20KT P6SM OVC050=



000
FTUS41 KCLE 252300
TAFMFD
TAF
KMFD 252331Z 2600/2624 01008KT P6SM -RA OVC035
     FM260200 06010KT P6SM OVC080
     FM260700 36007KT P6SM OVC250
     FM261700 36010G15KT P6SM SCT250=



000
FTUS41 KCLE 252300
TAFCAK
TAF
KCAK 252331Z 2600/2624 05006KT P6SM BKN100 OVC150
     FM260700 02007KT P6SM BKN250
     FM261900 36010G15KT P6SM SCT250=



000
FTUS41 KCLE 252300
TAFTOL
TAF
KTOL 252331Z 2600/2624 05007KT P6SM BKN100
     FM260400 01006KT P6SM BKN250
     FM261600 02010G15KT P6SM SCT250
     FM261900 01010G15KT P6SM OVC050=



000
FTUS41 KCLE 252000 AAA
TAFCLE
TAF AMD
KCLE 252053Z 2521/2624 03012KT P6SM SCT100 OVC150
     FM260000 03006KT P6SM SCT100 BKN250
     FM261500 36010KT P6SM SCT040=



000
FTUS41 KCLE 251900 AAA
TAFERI
TAF AMD
KERI 251956Z 2520/2618 05012KT P6SM BKN200
     FM260000 04006KT P6SM BKN250
     FM261500 01008KT P6SM FEW050=



000
FTUS41 KCLE 251900 AAA
TAFERI
TAF AMD
KERI 251956Z 2520/2618 05012KT P6SM BKN200
     FM260000 04006KT P6SM BKN250
     FM261500 01008KT P6SM FEW050=



000
FTUS41 KCLE 251700 CCA
TAFMFD
TAF COR
KMFD 251755Z 2518/2618 08010KT P6SM VCSH SCT060 OVC080
      TEMPO 2518/2520 6SM -RA BR BKN035
     FM252100 06010KT 6SM -RA BR OVC035
     FM260100 02007KT P6SM OVC080
     FM261500 36010KT P6SM SCT035=



000
FTUS41 KCLE 251700 CCA
TAFMFD
TAF COR
KMFD 251755Z 2518/2618 08010KT P6SM VCSH SCT060 OVC080
      TEMPO 2518/2520 6SM -RA BR BKN035
     FM252100 06010KT 6SM -RA BR OVC035
     FM260100 02007KT P6SM OVC080
     FM261500 36010KT P6SM SCT035=



000
FTUS41 KCLE 251700
TAFYNG
TAF
KYNG 251738Z 2518/2618 05007KT P6SM BKN100 OVC180
     FM260000 03005KT P6SM SCT100 BKN200
     FM261500 01008KT P6SM SCT045=



000
FTUS41 KCLE 251700
TAFCAK
TAF
KCAK 251738Z 2518/2618 08008KT P6SM VCSH BKN045 OVC120
      TEMPO 2518/2520 -RA BKN035 OVC050
     FM260100 02008KT P6SM OVC090
     FM260800 01008KT P6SM SKC=



000
FTUS41 KCLE 251700
TAFFDY
TAF
KFDY 251738Z 2518/2618 08013KT P6SM VCSH BKN060 OVC080
      TEMPO 2518/2521 6SM -RA BR BKN035
     FM252300 04009KT P6SM BKN080
     FM261500 01010KT P6SM SCT030 BKN250=



000
FTUS41 KCLE 251700
TAFTOL
TAF
KTOL 251738Z 2518/2618 08012G20KT P6SM SCT060 OVC080
     FM252300 05007KT P6SM BKN100
     FM260400 01006KT P6SM SCT120 BKN250
     FM261500 01012KT P6SM SCT030=



000
FTUS41 KCLE 251700
TAFERI
TAF
KERI 251738Z 2518/2618 01007KT P6SM BKN200
     FM260000 04006KT P6SM BKN250
     FM261500 01008KT P6SM FEW050=



000
FTUS41 KCLE 251700
TAFCLE
TAF
KCLE 251738Z 2518/2624 03012KT P6SM SCT100 OVC150
     FM260000 03006KT P6SM SCT100 BKN250
     FM261500 36010KT P6SM SCT040=



000
FTUS41 KCLE 251700
TAFMFD
TAF
KMFD 251738Z 2518/2618 08010KT P6SM VCSH SCT060 OVC080
      TEMPO 2518/2520 5SM -RA BR BKN035
     FM252100 06010KT 6SM -RA BR OVC035
     FM260100 02007KT P6SM OVC080
     FM261500 36010KT P6SM SCT035=



000
FTUS41 KCLE 251600 AAA
TAFFDY
TAF AMD
KFDY 251657Z 2517/2612 08013KT P6SM VCSH BKN060 OVC080
      TEMPO 2517/2521 6SM -RA BR BKN040
     FM252300 05009KT P6SM BKN080
     FM260400 03010KT P6SM SCT040 BKN080
     FM260800 02008KT P6SM SCT120 BKN250=



000
FTUS41 KCLE 251500 AAA
TAFTOL
TAF AMD
KTOL 251509Z 2515/2612 08012KT P6SM VCSH BKN015 OVC060
     FM260000 05012KT P6SM SCT040 BKN120
     FM260400 04008KT P6SM SCT120 BKN250
     FM260800 02008KT P6SM SCT250=



000
FTUS41 KCLE 251500 AAA
TAFCLE
TAF AMD
KCLE 251500Z 2515/2618 06010KT P6SM OVC070
     FM260000 03009KT P6SM OVC120
     FM260600 02005KT P6SM SCT120 BKN250
     FM261200 01006KT P6SM SCT250=



000
FTUS41 KCLE 251100 CCA
TAFMFD
TAF COR
KMFD 251138Z 2512/2612 08008KT P6SM VCSH OVC060
     FM251600 08012KT P6SM -RA OVC045
      TEMPO 2516/2518 5SM -RA BR OVC025
     FM251800 08012G18KT 5SM -RA BR OVC025
     FM252000 05014G20KT 4SM -RA BR OVC015
     FM260200 02007KT P6SM OVC035
     FM260600 01010KT P6SM SCT040 BKN080
     FM261000 35008KT P6SM SCT120 BKN250=



000
FTUS41 KCLE 251100
TAFERI
TAF
KERI 251120Z 2512/2612 09003KT P6SM BKN250
     FM251600 03008KT P6SM BKN120 OVC250
     FM252200 03010KT P6SM SCT120 BKN250
     FM260400 05006KT P6SM BKN250=



000
FTUS41 KCLE 251100
TAFTOL
TAF
KTOL 251120Z 2512/2612 08008KT P6SM OVC050
     FM251500 08012KT P6SM VCSH OVC040
     FM260000 05012KT P6SM SCT040 BKN120
     FM260400 04008KT P6SM SCT120 BKN250
     FM260800 02008KT P6SM SCT250=



000
FTUS41 KCLE 251100
TAFCLE
TAF
KCLE 251120Z 2512/2618 15006KT P6SM -RA OVC050
     FM251400 09011KT P6SM OVC050
     FM251800 05012G16KT P6SM SCT040 OVC080
     FM260000 03009KT P6SM OVC120
     FM260600 02005KT P6SM SCT120 BKN250
     FM261200 01006KT P6SM SCT250=



000
FTUS41 KCLE 251100
TAFCAK
TAF
KCAK 251120Z 2512/2612 07011KT 5SM -RA BR SCT028 OVC045
      TEMPO 2512/2515 6SM -RA BR SCT028 OVC045
     FM251500 09011KT P6SM OVC045
     FM251900 08009KT P6SM -RA OVC045
      TEMPO 2520/2524 5SM -RA BR BKN025
     FM260200 04008KT P6SM OVC050
     FM260800 02008KT P6SM BKN120 OVC250=



000
FTUS41 KCLE 251100
TAFMFD
TAF
KMFD 251120Z 2512/2612 05014KT P6SM VCSH OVC060
     FM251600 08012KT P6SM -RA OVC045
      TEMPO 2516/2518 5SM -RA BR OVC025
     FM251800 08012G18KT 5SM -RA BR OVC025
     FM252000 05014G20KT 4SM -RA BR OVC015
     FM260200 02007KT P6SM OVC035
     FM260600 01010KT P6SM SCT040 BKN080
     FM261000 35008KT P6SM SCT120 BKN250=



000
FTUS41 KCLE 251100
TAFFDY
TAF
KFDY 251120Z 2512/2612 08012G16KT P6SM OVC060
     FM251500 08012G18KT P6SM -RA OVC035
      TEMPO 2515/2517 5SM -RA BR OVC025
     FM251700 08014G20KT 5SM -RA BR OVC025
     FM252000 07014G20KT 4SM -RA BR OVC015
     FM260000 05015G25KT P6SM OVC035
     FM260400 03010KT P6SM SCT040 BKN080
     FM260800 02008KT P6SM SCT120 BKN250=



000
FTUS41 KCLE 251100
TAFYNG
TAF
KYNG 251120Z 2512/2612 VRB04KT P6SM VCSH OVC050
     FM251600 07008KT P6SM BKN050 OVC100
     FM260000 03006KT P6SM BKN050 OVC100
     FM260300 03006KT P6SM SCT050 BKN100
     FM260600 03006KT P6SM BKN120 OVC250
     FM260800 03006KT P6SM SCT120 BKN250=



000
FTUS41 KCLE 251000 AAB
TAFCAK
TAF AMD
KCAK 251000Z 2510/2606 03012KT P6SM OVC025
      TEMPO 2510/2513 5SM -RA OVC025
     FM251400 10012KT P6SM BKN050 OVC100
     FM252000 05010KT P6SM VCSH OVC050
     FM260300 03010KT P6SM SCT050 BKN100=



000
FTUS41 KCLE 250900 AAA
TAFMFD
TAF AMD
KMFD 250938Z 2510/2606 05014KT P6SM VCSH OVC060
     FM251400 06014KT P6SM OVC045
     FM251800 08014G20KT 6SM -RA OVC030
      TEMPO 2520/2524 4SM -RA BR OVC015
     FM260200 02008KT P6SM VCSH OVC045
     FM260400 01008KT P6SM SCT045 OVC100=



000
FTUS41 KCLE 250900 AAA
TAFCAK
TAF AMD
KCAK 250906Z 2509/2606 09006KT P6SM OVC025
      TEMPO 2509/2513 5SM -RA OVC025
     FM251400 10009KT P6SM BKN050 OVC100
     FM252000 05010KT P6SM VCSH OVC050
     FM260300 03010KT P6SM SCT050 BKN100=



000
FTUS41 KCLE 250900 AAA
TAFCAK
TAF AMD
KCAK 250906Z 2509/2606 09006KT P6SM OVC025
      TEMPO 2509/2513 5SM -RA OVC025
     FM251400 10009KT P6SM BKN050 OVC100
     FM252000 05010KT P6SM VCSH OVC050
     FM260300 03010KT P6SM SCT050 BKN100=



000
FTUS41 KCLE 250800 AAB
TAFTOL
TAF AMD
KTOL 250839Z 2509/2606 05008KT P6SM -RA OVC040
     FM251000 06005KT P6SM OVC040
     FM251400 08012KT P6SM OVC040
     FM252200 05012KT P6SM SCT040 BKN120
     FM260200 04008KT P6SM SCT120 BKN250=



000
FTUS41 KCLE 250700 AAA
TAFTOL
TAF AMD
KTOL 250706Z 2507/2606 05006KT P6SM -RA OVC030
     FM251000 06005KT P6SM OVC040
     FM251400 08012KT P6SM OVC040
     FM252200 05012KT P6SM SCT040 BKN120
     FM260200 04008KT P6SM SCT120 BKN250=



000
FTUS41 KCLE 250700 AAB
TAFCLE
TAF AMD
KCLE 250705Z 2507/2612 08008KT P6SM OVC045
      TEMPO 2507/2511 -RA BKN030
     FM251500 08011KT P6SM BKN100
     FM251800 04012KT P6SM BKN100
     FM260200 03008KT P6SM SCT100 BKN250=



000
FTUS41 KCLE 250600 CCA
TAFCLE
TAF COR
KCLE 250638Z 2507/2612 08008KT P6SM OVC045
      TEMPO 2507/2511 -RA
     FM251500 08011KT P6SM BKN100
     FM251800 04012KT P6SM BKN100
     FM260200 03008KT P6SM SCT100 BKN250=



000
FTUS41 KCLE 250600 CCA
TAFCLE
TAF COR
KCLE 250638Z 2507/2612 08008KT P6SM OVC045
      TEMPO 2507/2511 -RA
     FM251500 08011KT P6SM BKN100
     FM251800 04012KT P6SM BKN100
     FM260200 03008KT P6SM SCT100 BKN250=



000
FTUS41 KCLE 250600 AAA
TAFCLE
TAF AMD
KCLE 250637Z 2507/2612 08008KT P6SM BKN045
      TEMPO 2507/2511 -RA
     FM251500 08011KT P6SM BKN100
     FM251800 04012KT P6SM BKN100
     FM260200 03008KT P6SM SCT100 BKN250=



000
FTUS41 KCLE 250500
TAFFDY
TAF
KFDY 250520Z 2506/2606 07008KT P6SM OVC080
     FM250900 08010KT P6SM -RA OVC060
      TEMPO 2509/2513 5SM -RA BR OVC035
     FM251300 09012G16KT P6SM VCSH OVC050
     FM251600 08014G22KT 6SM -RA OVC035
      TEMPO 2518/2522 4SM -RA BR OVC020
     FM260000 05015G25KT P6SM OVC050
     FM260400 03012KT P6SM SCT050 BKN100=



000
FTUS41 KCLE 250500
TAFCAK
TAF
KCAK 250520Z 2506/2606 07008KT P6SM BKN100
     FM250900 09006KT P6SM VCSH BKN100
     FM251400 10009KT P6SM BKN050 OVC100
     FM252000 05010KT P6SM VCSH OVC050
     FM260300 03010KT P6SM SCT050 BKN100=



000
FTUS41 KCLE 250500
TAFERI
TAF
KERI 250520Z 2506/2606 VRB02KT P6SM BKN250
     FM251500 03008KT P6SM OVC120
     FM252200 03010KT P6SM SCT120 BKN250=



000
FTUS41 KCLE 250500
TAFMFD
TAF
KMFD 250520Z 2506/2606 12006KT P6SM OVC080
     FM251000 09008KT P6SM VCSH OVC060
     FM251400 08012KT P6SM OVC045
     FM251800 08012G18KT 6SM -RA OVC030
      TEMPO 2520/2524 4SM -RA BR OVC015
     FM260200 02008KT P6SM VCSH OVC045
     FM260400 01008KT P6SM SCT045 OVC100=



000
FTUS41 KCLE 250500
TAFYNG
TAF
KYNG 250520Z 2506/2606 08005KT P6SM BKN250
     FM251000 09004KT P6SM VCSH BKN100
     FM251500 08006KT P6SM BKN050 OVC100
     FM252100 03008KT P6SM VCSH OVC050
     FM260400 03006KT P6SM SCT050 BKN100=



000
FTUS41 KCLE 250500
TAFTOL
TAF
KTOL 250520Z 2506/2606 05006KT P6SM -RA OVC050
     FM251000 06005KT P6SM OVC080
     FM251400 08012KT P6SM OVC040
     FM252200 05012KT P6SM SCT040 BKN120
     FM260200 04008KT P6SM SCT120 BKN250=



000
FTUS41 KCLE 250500
TAFCLE
TAF
KCLE 250520Z 2506/2612 08008KT P6SM SCT050 BKN100
      TEMPO 2506/2510 -RA
     FM251500 08011KT P6SM BKN100
     FM251800 04012KT P6SM BKN100
     FM260200 03008KT P6SM SCT100 BKN250=



000
FTUS41 KCLE 250200 AAA
TAFCLE
TAF AMD
KCLE 250252Z 2503/2606 10004KT P6SM OVC250
     FM250700 08006KT P6SM OVC070
     FM251800 03010KT P6SM OVC250
     FM260000 04007KT P6SM OVC100=



000
FTUS41 KCLE 250200 AAA
TAFCLE
TAF AMD
KCLE 250252Z 2503/2606 10004KT P6SM OVC250
     FM250700 08006KT P6SM OVC070
     FM251800 03010KT P6SM OVC250
     FM260000 04007KT P6SM OVC100=



000
FTUS41 KCLE 242300
TAFTOL
TAF
KTOL 242330Z 2500/2524 35005KT P6SM OVC250
     FM250200 08005KT P6SM OVC100
     FM250700 08005KT P6SM -RA OVC050
     FM251100 07010KT P6SM OVC100
     FM251900 08010G20KT 4SM -RA OVC035=



000
FTUS41 KCLE 242300
TAFCAK
TAF
KCAK 242330Z 2500/2524 33010KT P6SM OVC250
     FM250400 VRB03KT P6SM OVC100
     FM251000 09007KT P6SM OVC100
     FM252000 06010KT P6SM -RA OVC050
     FM252200 04010KT 4SM -RA BR OVC050=



000
FTUS41 KCLE 242300
TAFERI
TAF
KERI 242330Z 2500/2524 10004KT P6SM BKN250
     FM251100 03008KT P6SM OVC100
     FM252100 04015G25KT P6SM OVC250=



000
FTUS41 KCLE 242300
TAFYNG
TAF
KYNG 242330Z 2500/2524 01005KT P6SM OVC250
     FM250600 08004KT P6SM OVC100
     FM252300 04007KT P6SM OVC050=



000
FTUS41 KCLE 242300
TAFMFD
TAF
KMFD 242330Z 2500/2524 20008KT P6SM OVC250
     FM250200 VRB03KT P6SM OVC100
     FM251600 10012KT P6SM -RA OVC050
     FM251800 08015G25KT 4SM -RA BR OVC050
     FM252000 06010G20KT 4SM -RA BR OVC007
     FM252200 05012KT 2SM -RA BR OVC007=



000
FTUS41 KCLE 242300
TAFCLE
TAF
KCLE 242330Z 2500/2606 VRB03KT P6SM OVC250
     FM250700 08006KT P6SM OVC070
     FM251800 03010KT P6SM OVC250
     FM260000 04007KT P6SM OVC100=



000
FTUS41 KCLE 242300
TAFFDY
TAF
KFDY 242330Z 2500/2524 29007KT P6SM OVC250
     FM250100 09005KT P6SM OVC070
     FM250600 08009KT P6SM -RA OVC050
     FM250800 08012KT P6SM -RA OVC050
     FM251500 10015G25KT P6SM -RA OVC050
     FM251800 10015G25KT 4SM -RA BR OVC015=



000
FTUS41 KCLE 242300
TAFTOL
TAF
KTOL 242330Z 2500/2524 35005KT P6SM OVC250
     FM250200 08005KT P6SM OVC100
     FM250700 08005KT P6SM -RA OVC050
     FM251100 07010KT P6SM OVC100
     FM251900 08010G20KT 4SM -RA OVC035=



000
FTUS41 KCLE 242300
TAFCAK
TAF
KCAK 242330Z 2500/2524 33010KT P6SM OVC250
     FM250400 VRB03KT P6SM OVC100
     FM251000 09007KT P6SM OVC100
     FM252000 06010KT P6SM -RA OVC050
     FM252200 04010KT 4SM -RA BR OVC050=



000
FTUS41 KCLE 242300
TAFFDY
TAF
KFDY 242330Z 2500/2524 29007KT P6SM OVC250
     FM250100 09005KT P6SM OVC070
     FM250600 08009KT P6SM -RA OVC050
     FM250800 08012KT P6SM -RA OVC050
     FM251500 10015G25KT P6SM -RA OVC050
     FM251800 10015G25KT 4SM -RA BR OVC015=



000
FTUS41 KCLE 242300
TAFCLE
TAF
KCLE 242330Z 2500/2606 VRB03KT P6SM OVC250
     FM250700 08006KT P6SM OVC070
     FM251800 03010KT P6SM OVC250
     FM260000 04007KT P6SM OVC100=



000
FTUS41 KCLE 242300
TAFERI
TAF
KERI 242330Z 2500/2524 10004KT P6SM BKN250
     FM251100 03008KT P6SM OVC100
     FM252100 04015G25KT P6SM OVC250=



000
FTUS41 KCLE 242300
TAFYNG
TAF
KYNG 242330Z 2500/2524 01005KT P6SM OVC250
     FM250600 08004KT P6SM OVC100
     FM252300 04007KT P6SM OVC050=



000
FTUS41 KCLE 242300
TAFMFD
TAF
KMFD 242330Z 2500/2524 20008KT P6SM OVC250
     FM250200 VRB03KT P6SM OVC100
     FM251600 10012KT P6SM -RA OVC050
     FM251800 08015G25KT 4SM -RA BR OVC050
     FM252000 06010G20KT 4SM -RA BR OVC007
     FM252200 05012KT 2SM -RA BR OVC007=



000
FTUS41 KCLE 242000 AAA
TAFCAK
TAF AMD
KCAK 242059Z 2421/2518 33012G18KT P6SM SCT040
     FM250000 36003KT P6SM SCT120 BKN200
     FM250800 09004KT P6SM SCT040 OVC100
     FM251300 09012G18KT P6SM SCT025 OVC040=



000
FTUS41 KCLE 242000 AAA
TAFCLE
TAF AMD
KCLE 242058Z 2421/2524 36006KT P6SM SKC
     FM242300 36006KT P6SM OVC250
     FM250500 09004KT P6SM SCT040 OVC100
     FM251200 06012G18KT P6SM SCT025 OVC040=



000
FTUS41 KCLE 241700
TAFTOL
TAF
KTOL 241735Z 2418/2518 30007KT P6SM SCT250
     FM242300 36006KT P6SM SCT040 OVC120
     FM250600 08006KT P6SM VCSH OVC035=



000
FTUS41 KCLE 241700
TAFMFD
TAF
KMFD 241735Z 2418/2518 30010KT P6SM FEW050
     FM250300 08006KT P6SM SCT040 OVC100
     FM251100 10010KT P6SM SCT025 OVC040=



000
FTUS41 KCLE 241700
TAFERI
TAF
KERI 241735Z 2418/2518 30012G18KT P6SM FEW020
     FM250400 36004KT P6SM BKN200
     FM251200 12004KT P6SM SCT040 OVC120=



000
FTUS41 KCLE 241700
TAFFDY
TAF
KFDY 241735Z 2418/2518 27012KT P6SM SCT250
     FM250100 10006KT P6SM SCT040 OVC120
     FM250600 08006KT P6SM VCSH OVC035=



000
FTUS41 KCLE 241700
TAFCLE
TAF
KCLE 241735Z 2418/2524 34012KT P6SM FEW040
     FM242200 36010KT P6SM BKN250
     FM250500 09004KT P6SM SCT040 OVC100
     FM251200 06012G18KT P6SM SCT025 OVC040=



000
FTUS41 KCLE 241700
TAFYNG
TAF
KYNG 241735Z 2418/2518 30012G20KT P6SM BKN040
     FM250000 36003KT P6SM SCT040 BKN200
     FM250900 07004KT P6SM SCT040 OVC100
     FM251400 09012G18KT P6SM SCT025 OVC040=



000
FTUS41 KCLE 241700
TAFCAK
TAF
KCAK 241735Z 2418/2518 30012G18KT P6SM SCT040
     FM250000 36003KT P6SM SCT120 BKN200
     FM250800 09004KT P6SM SCT040 OVC100
     FM251300 09012G18KT P6SM SCT025 OVC040=



    US Dept of Commerce
    National Oceanic and Atmospheric Administration
    National Weather Service
    1325 East West Highway
    Silver Spring, MD 20910
    Page Author: NWS Internet Services Team
Disclaimer
Information Quality
Credits
Glossary
Privacy Policy
Freedom of Information Act (FOIA)
About Us
Career Opportunities